createdAt,value
2023-11-09T00:01:11.793Z,1.33
2023-11-09T00:03:40.126Z,1.27
2023-11-09T00:06:08.555Z,1.20
2023-11-09T00:08:37.070Z,1.15
2023-11-09T00:11:05.973Z,1.70
2023-11-09T00:13:34.217Z,1.30
2023-11-09T00:16:02.545Z,1.50
2023-11-09T00:18:32.663Z,1.20
2023-11-09T00:21:00.964Z,1.40
2023-11-09T00:23:29.245Z,1.23
2023-11-09T00:25:57.603Z,1.20
2023-11-09T00:28:25.848Z,1.23
2023-11-09T00:30:54.202Z,1.20
2023-11-09T00:33:22.553Z,1.40
2023-11-09T00:35:51.892Z,1.30
2023-11-09T00:38:21.813Z,1.40
2023-11-09T00:40:50.710Z,1.65
2023-11-09T00:43:19.027Z,1.30
2023-11-09T00:45:47.883Z,1.40
2023-11-09T00:48:18.432Z,1.60
2023-11-09T00:50:46.919Z,1.30
2023-11-09T00:53:15.340Z,1.30
2023-11-09T00:55:44.110Z,1.40
2023-11-09T00:58:12.560Z,1.30
2023-11-09T01:00:41.065Z,1.50
2023-11-09T01:03:09.413Z,1.40
2023-11-09T01:05:37.949Z,1.30
2023-11-09T01:08:06.748Z,1.58
2023-11-09T01:10:35.042Z,1.60
2023-11-09T01:13:03.936Z,1.70
2023-11-09T01:15:32.357Z,1.90
2023-11-09T01:18:10.213Z,2.05
2023-11-09T01:20:38.750Z,1.65
2023-11-09T01:23:09.884Z,1.60
2023-11-09T01:25:38.234Z,1.70
2023-11-09T01:28:07.092Z,1.50
2023-11-09T01:30:35.429Z,1.40
2023-11-09T01:33:05.791Z,1.40
2023-11-09T01:35:34.710Z,1.65
2023-11-09T01:38:03.126Z,1.55
2023-11-09T01:40:32.164Z,1.55
2023-11-09T01:43:00.736Z,1.60
2023-11-09T01:45:29.801Z,1.92
2023-11-09T01:47:58.351Z,2.05
2023-11-09T01:50:26.988Z,1.70
2023-11-09T01:52:56.737Z,1.70
2023-11-09T01:55:25.525Z,1.73
2023-11-09T01:57:54.702Z,1.55
2023-11-09T02:00:23.182Z,1.75
2023-11-09T02:02:54.923Z,1.65
2023-11-09T02:05:27.504Z,1.90
2023-11-09T02:07:56.302Z,1.98
2023-11-09T02:10:25.034Z,1.80
2023-11-09T02:12:53.603Z,1.80
2023-11-09T02:15:21.952Z,1.60
2023-11-09T02:17:50.374Z,1.92
2023-11-09T02:20:18.727Z,1.90
2023-11-09T02:22:49.200Z,2.03
2023-11-09T02:25:18.304Z,2.10
2023-11-09T02:27:46.961Z,1.70
2023-11-09T02:30:15.525Z,1.80
2023-11-09T02:32:43.945Z,2.22
2023-11-09T02:35:12.387Z,2.13
2023-11-09T02:37:41.045Z,2.20
2023-11-09T02:40:10.469Z,2.05
2023-11-09T02:42:38.936Z,2.25
2023-11-09T02:45:08.331Z,1.70
2023-11-09T02:47:37.003Z,1.90
2023-11-09T02:50:06.138Z,2.08
2023-11-09T02:52:34.464Z,1.77
2023-11-09T02:55:02.917Z,2.17
2023-11-09T02:57:32.168Z,1.95
2023-11-09T03:00:01.529Z,1.85
2023-11-09T03:02:30.054Z,1.80
2023-11-09T03:04:58.445Z,1.77
2023-11-09T03:07:27.527Z,2.35
2023-11-09T03:09:57.111Z,1.77
2023-11-09T03:12:25.382Z,1.88
2023-11-09T03:14:53.703Z,1.80
2023-11-09T03:17:22.590Z,2.00
2023-11-09T03:19:50.855Z,1.80
2023-11-09T03:22:19.168Z,2.08
2023-11-09T03:24:47.531Z,1.83
2023-11-09T03:27:15.866Z,2.10
2023-11-09T03:29:44.140Z,1.80
2023-11-09T03:32:13.321Z,1.88
2023-11-09T03:34:41.953Z,2.08
2023-11-09T03:37:10.230Z,1.92
2023-11-09T03:39:38.911Z,2.50
2023-11-09T03:42:07.534Z,2.70
2023-11-09T03:44:39.618Z,2.50
2023-11-09T03:47:08.312Z,2.65
2023-11-09T03:49:43.865Z,2.42
2023-11-09T03:52:12.736Z,2.50
2023-11-09T03:54:41.108Z,2.63
2023-11-09T03:57:09.891Z,2.50
2023-11-09T03:59:38.230Z,2.17
2023-11-09T04:02:06.542Z,2.42
2023-11-09T04:04:34.890Z,2.42
2023-11-09T04:07:03.301Z,2.30
2023-11-09T04:09:31.962Z,2.30
2023-11-09T04:12:00.284Z,2.88
2023-11-09T04:14:28.618Z,2.40
2023-11-09T04:16:56.908Z,2.67
2023-11-09T04:19:25.428Z,2.30
2023-11-09T04:21:54.885Z,2.50
2023-11-09T04:24:23.128Z,2.53
2023-11-09T04:26:51.440Z,2.75
2023-11-09T04:29:22.129Z,2.70
2023-11-09T04:31:50.375Z,2.10
2023-11-09T04:34:18.743Z,2.05
2023-11-09T04:36:51.758Z,2.17
2023-11-09T04:39:30.039Z,2.42
2023-11-09T04:42:06.340Z,2.60
2023-11-09T04:44:34.680Z,2.22
2023-11-09T04:47:10.631Z,2.53
2023-11-09T04:49:47.313Z,2.13
2023-11-09T04:52:18.696Z,2.83
2023-11-09T04:54:47.739Z,2.40
2023-11-09T04:57:35.139Z,2.90
2023-11-09T05:00:21.675Z,2.50
2023-11-09T05:03:08.378Z,2.88
2023-11-09T05:05:55.397Z,2.30
2023-11-09T05:08:23.684Z,2.45
2023-11-09T05:10:51.961Z,2.42
2023-11-09T05:13:20.802Z,2.42
2023-11-09T05:15:49.068Z,2.35
2023-11-09T05:18:17.620Z,2.40
2023-11-09T05:20:45.881Z,2.40
2023-11-09T05:23:14.301Z,2.70
2023-11-09T05:25:45.593Z,2.78
2023-11-09T05:28:14.392Z,3.00
2023-11-09T05:30:42.713Z,2.92
2023-11-09T05:33:11.058Z,2.90
2023-11-09T05:35:39.369Z,2.63
2023-11-09T05:38:07.678Z,3.30
2023-11-09T05:40:36.052Z,2.88
2023-11-09T05:43:04.436Z,3.20
2023-11-09T05:45:32.695Z,3.15
2023-11-09T05:48:01.154Z,3.08
2023-11-09T05:50:29.586Z,3.42
2023-11-09T05:52:57.844Z,2.85
2023-11-09T05:55:26.174Z,3.45
2023-11-09T05:57:54.511Z,3.38
2023-11-09T06:00:23.306Z,2.97
2023-11-09T06:02:51.521Z,3.13
2023-11-09T06:05:20.106Z,3.53
2023-11-09T06:07:48.378Z,3.58
2023-11-09T06:10:16.717Z,3.00
2023-11-09T06:12:45.011Z,3.38
2023-11-09T06:15:15.707Z,3.38
2023-11-09T06:17:45.948Z,3.67
2023-11-09T06:20:15.056Z,3.58
2023-11-09T06:22:43.713Z,3.15
2023-11-09T06:25:13.871Z,3.50
2023-11-09T06:27:43.420Z,3.20
2023-11-09T06:30:12.654Z,3.30
2023-11-09T06:32:42.403Z,3.30
2023-11-09T06:35:16.164Z,3.67
2023-11-09T06:37:47.248Z,3.47
2023-11-09T06:40:18.849Z,3.38
2023-11-09T06:42:51.980Z,3.40
2023-11-09T06:45:20.598Z,3.40
2023-11-09T06:47:49.272Z,3.25
2023-11-09T06:50:21.111Z,3.22
2023-11-09T06:52:50.276Z,2.80
2023-11-09T06:55:18.820Z,3.55
2023-11-09T06:57:47.995Z,3.45
2023-11-09T07:00:16.950Z,3.30
2023-11-09T07:02:52.136Z,3.40
2023-11-09T07:05:21.987Z,3.08
2023-11-09T07:07:51.783Z,3.08
2023-11-09T07:10:22.984Z,3.40
2023-11-09T07:12:51.317Z,3.30
2023-11-09T07:15:19.875Z,3.17
2023-11-09T07:17:48.093Z,3.38
2023-11-09T07:20:16.532Z,3.30
2023-11-09T07:22:45.339Z,3.45
2023-11-09T07:25:14.389Z,2.92
2023-11-09T07:27:42.995Z,3.20
2023-11-09T07:30:12.037Z,3.50
2023-11-09T07:32:40.402Z,3.30
2023-11-09T07:35:11.105Z,3.10
2023-11-09T07:37:39.697Z,3.35
2023-11-09T07:40:12.042Z,3.42
2023-11-09T07:42:40.413Z,3.45
2023-11-09T07:45:11.650Z,3.42
2023-11-09T07:47:40.126Z,3.13
2023-11-09T07:50:11.614Z,3.45
2023-11-09T07:52:40.234Z,3.05
2023-11-09T07:55:09.560Z,3.30
2023-11-09T07:57:37.897Z,3.10
2023-11-09T08:00:08.400Z,3.08
2023-11-09T08:02:36.683Z,3.60
2023-11-09T08:05:06.908Z,3.20
2023-11-09T08:07:35.555Z,3.00
2023-11-09T08:10:04.013Z,2.92
2023-11-09T08:12:34.249Z,3.13
2023-11-09T08:15:06.700Z,3.25
2023-11-09T08:17:35.000Z,2.75
2023-11-09T08:20:03.806Z,3.47
2023-11-09T08:22:32.228Z,3.00
2023-11-09T08:25:01.213Z,2.80
2023-11-09T08:27:29.430Z,3.05
2023-11-09T08:29:58.633Z,3.00
2023-11-09T08:32:29.471Z,3.25
2023-11-09T08:34:58.064Z,3.00
2023-11-09T08:37:26.389Z,3.20
2023-11-09T08:39:54.621Z,3.13
2023-11-09T08:42:22.904Z,3.10
2023-11-09T08:44:51.177Z,2.70
2023-11-09T08:47:23.363Z,2.92
2023-11-09T08:49:51.589Z,3.20
2023-11-09T08:52:19.808Z,3.13
2023-11-09T08:54:48.125Z,2.90
2023-11-09T08:57:17.207Z,3.33
2023-11-09T08:59:45.780Z,3.10
2023-11-09T09:02:13.945Z,2.45
2023-11-09T09:04:42.281Z,2.60
2023-11-09T09:07:11.989Z,2.80
2023-11-09T09:09:46.802Z,2.85
2023-11-09T09:12:17.774Z,2.72
2023-11-09T09:14:48.449Z,2.70
2023-11-09T09:17:18.902Z,2.30
2023-11-09T09:19:48.293Z,2.83
2023-11-09T09:22:16.672Z,2.58
2023-11-09T09:24:44.919Z,2.42
2023-11-09T09:27:13.129Z,2.40
2023-11-09T09:29:41.820Z,2.65
2023-11-09T09:32:10.295Z,2.42
2023-11-09T09:34:38.576Z,2.75
2023-11-09T09:37:12.590Z,3.50
2023-11-09T09:39:41.639Z,3.78
2023-11-09T09:42:10.447Z,3.40
2023-11-09T09:44:40.313Z,3.88
2023-11-09T09:47:09.806Z,3.40
2023-11-09T09:49:38.373Z,3.35
2023-11-09T09:52:06.826Z,3.35
2023-11-09T09:54:35.894Z,3.30
2023-11-09T09:57:05.607Z,3.15
2023-11-09T09:59:34.777Z,2.85
2023-11-09T10:02:08.111Z,2.70
2023-11-09T10:04:37.612Z,2.83
2023-11-09T10:07:06.189Z,2.88
2023-11-09T10:09:34.637Z,3.03
2023-11-09T10:12:07.935Z,3.17
2023-11-09T10:14:37.378Z,3.10
2023-11-09T10:17:09.178Z,3.58
2023-11-09T10:19:44.362Z,3.10
2023-11-09T10:22:12.653Z,3.13
2023-11-09T10:24:41.505Z,3.58
2023-11-09T10:27:10.797Z,3.10
2023-11-09T10:29:39.973Z,3.42
2023-11-09T10:32:21.253Z,3.00
2023-11-09T10:34:50.211Z,3.35
2023-11-09T10:37:20.082Z,3.40
2023-11-09T10:39:51.027Z,2.50
2023-11-09T10:42:19.686Z,2.90
2023-11-09T10:44:48.248Z,2.97
2023-11-09T10:47:16.747Z,3.08
2023-11-09T10:49:46.587Z,2.33
2023-11-09T10:52:17.423Z,2.80
2023-11-09T10:54:50.705Z,2.65
2023-11-09T10:57:23.114Z,2.50
2023-11-09T10:59:52.405Z,2.63
2023-11-09T11:02:21.796Z,2.38
2023-11-09T11:04:57.945Z,2.30
2023-11-09T11:07:40.309Z,2.22
2023-11-09T11:10:18.442Z,2.80
2023-11-09T11:12:46.910Z,2.67
2023-11-09T11:15:19.102Z,2.70
2023-11-09T11:18:06.474Z,2.38
2023-11-09T11:21:29.372Z,2.35
2023-11-09T11:24:45.010Z,2.40
2023-11-09T11:27:26.003Z,2.13
2023-11-09T11:29:55.496Z,2.40
2023-11-09T11:32:24.288Z,2.10
2023-11-09T11:34:57.751Z,1.83
2023-11-09T11:37:28.645Z,2.03
2023-11-09T11:39:57.037Z,2.20
2023-11-09T11:42:27.683Z,2.10
2023-11-09T11:44:59.377Z,2.22
2023-11-09T11:47:32.709Z,1.90
2023-11-09T11:50:03.166Z,2.10
2023-11-09T11:52:34.942Z,1.75
2023-11-09T11:55:12.294Z,2.00
2023-11-09T11:58:15.912Z,1.80
2023-11-09T12:00:45.835Z,3.00
2023-11-09T12:03:14.984Z,2.00
2023-11-09T12:05:45.413Z,1.90
2023-11-09T12:08:14.826Z,2.10
2023-11-09T12:10:46.958Z,2.33
2023-11-09T12:13:16.687Z,2.30
2023-11-09T12:15:45.557Z,2.50
2023-11-09T12:18:14.254Z,1.90
2023-11-09T12:20:42.534Z,1.95
2023-11-09T12:23:13.783Z,1.92
2023-11-09T12:25:53.604Z,1.63
2023-11-09T12:28:23.996Z,1.80
2023-11-09T12:30:53.719Z,1.85
2023-11-09T12:33:22.757Z,1.70
2023-11-09T12:36:07.441Z,1.63
2023-11-09T12:38:36.867Z,1.90
2023-11-09T12:41:08.661Z,1.65
2023-11-09T12:43:41.827Z,1.70
2023-11-09T12:46:16.608Z,1.95
2023-11-09T12:51:26.751Z,1.75
2023-11-09T12:53:57.180Z,1.77
2023-11-09T12:56:33.077Z,1.73
2023-11-09T12:59:09.749Z,1.80
2023-11-09T13:01:38.023Z,1.90
2023-11-09T13:04:07.782Z,1.80
2023-11-09T13:06:36.031Z,1.90
2023-11-09T13:09:10.032Z,1.90
2023-11-09T13:11:45.240Z,1.80
2023-11-09T13:14:18.598Z,1.75
2023-11-09T13:16:47.238Z,1.90
2023-11-09T13:19:28.063Z,1.60
2023-11-09T13:21:56.587Z,1.60
2023-11-09T13:24:31.352Z,1.75
2023-11-09T13:27:00.743Z,1.90
2023-11-09T13:29:29.779Z,2.00
2023-11-09T13:31:58.929Z,1.90
2023-11-09T13:34:45.131Z,1.77
2023-11-09T13:37:22.580Z,1.80
2023-11-09T13:40:09.662Z,1.80
2023-11-09T13:42:39.252Z,1.85
2023-11-09T13:45:28.366Z,1.70
2023-11-09T13:47:57.312Z,2.00
2023-11-09T13:50:28.716Z,1.70
2023-11-09T13:52:58.498Z,2.00
2023-11-09T13:55:58.939Z,1.90
2023-11-09T13:58:27.603Z,1.83
2023-11-09T14:01:02.422Z,1.60
2023-11-09T14:06:02.599Z,1.80
2023-11-09T14:08:30.821Z,1.80
2023-11-09T14:10:59.141Z,1.70
2023-11-09T14:13:33.533Z,1.80
2023-11-09T14:16:17.452Z,1.80
2023-11-09T14:19:24.129Z,1.95
2023-11-09T14:21:54.012Z,2.05
2023-11-09T14:24:25.541Z,1.80
2023-11-09T14:26:56.016Z,2.33
2023-11-09T14:29:26.178Z,2.10
2023-11-09T14:31:54.430Z,2.00
2023-11-09T14:34:23.272Z,1.73
2023-11-09T14:36:52.589Z,2.00
2023-11-09T14:39:39.846Z,1.90
2023-11-09T14:42:08.845Z,1.98
2023-11-09T14:44:40.389Z,2.00
2023-11-09T14:47:12.325Z,2.30
2023-11-09T14:49:51.485Z,2.10
2023-11-09T14:52:23.259Z,1.90
2023-11-09T14:54:52.202Z,1.70
2023-11-09T14:57:21.293Z,1.90
2023-11-09T14:59:49.559Z,1.80
2023-11-09T15:02:22.447Z,2.08
2023-11-09T15:04:58.012Z,2.00
2023-11-09T15:07:26.589Z,1.90
2023-11-09T15:09:59.536Z,1.90
2023-11-09T15:12:29.975Z,1.92
2023-11-09T15:14:58.213Z,1.75
2023-11-09T15:17:27.556Z,2.00
2023-11-09T15:19:56.615Z,2.08
2023-11-09T15:22:26.941Z,1.80
2023-11-09T15:24:55.196Z,1.85
2023-11-09T15:27:23.437Z,1.70
2023-11-09T15:29:51.735Z,1.73
2023-11-09T15:32:23.283Z,1.83
2023-11-09T15:34:52.761Z,1.83
2023-11-09T15:37:22.033Z,2.05
2023-11-09T15:40:12.728Z,1.77
2023-11-09T15:42:39.084Z,2.10
2023-11-09T15:45:08.758Z,1.80
2023-11-09T15:47:41.451Z,1.92
2023-11-09T15:50:12.911Z,1.88
2023-11-09T15:52:41.467Z,2.05
2023-11-09T15:55:11.253Z,2.00
2023-11-09T15:57:39.973Z,2.25
2023-11-09T16:00:14.353Z,1.80
2023-11-09T16:02:43.864Z,1.83
2023-11-09T16:05:13.414Z,1.83
2023-11-09T16:07:43.083Z,2.00
2023-11-09T16:10:14.769Z,2.17
2023-11-09T16:12:43.090Z,1.70
2023-11-09T16:15:11.875Z,1.98
2023-11-09T16:17:40.263Z,2.13
2023-11-09T16:20:19.069Z,1.80
2023-11-09T16:22:47.352Z,1.90
2023-11-09T16:25:20.780Z,2.53
2023-11-09T16:27:51.490Z,2.05
2023-11-09T16:30:41.479Z,2.45
2023-11-09T16:33:10.686Z,2.00
2023-11-09T16:35:39.096Z,2.10
2023-11-09T16:38:07.539Z,2.13
2023-11-09T16:40:36.108Z,2.10
2023-11-09T16:43:05.279Z,2.10
2023-11-09T16:45:33.624Z,1.92
2023-11-09T16:48:01.909Z,2.95
2023-11-09T16:50:30.199Z,2.40
2023-11-09T16:52:58.602Z,2.10
2023-11-09T16:55:26.961Z,2.13
2023-11-09T16:57:56.043Z,2.65
2023-11-09T17:00:25.443Z,2.10
2023-11-09T17:02:54.154Z,2.05
2023-11-09T17:05:22.689Z,2.00
2023-11-09T17:07:51.113Z,1.80
2023-11-09T17:10:19.729Z,2.25
2023-11-09T17:12:48.093Z,2.20
2023-11-09T17:15:16.613Z,2.00
2023-11-09T17:17:45.379Z,2.00
2023-11-09T17:20:14.443Z,2.17
2023-11-09T17:22:46.167Z,1.70
2023-11-09T17:25:16.197Z,2.30
2023-11-09T17:27:45.253Z,1.85
2023-11-09T17:30:13.738Z,1.77
2023-11-09T17:32:42.158Z,2.20
2023-11-09T17:35:10.937Z,2.05
2023-11-09T17:37:39.970Z,2.05
2023-11-09T17:40:09.221Z,2.33
2023-11-09T17:42:40.216Z,2.05
2023-11-09T17:45:09.567Z,2.25
2023-11-09T17:47:41.105Z,2.00
2023-11-09T17:50:10.644Z,2.17
2023-11-09T17:52:46.932Z,1.80
2023-11-09T17:55:15.711Z,2.00
2023-11-09T17:57:45.027Z,1.70
2023-11-09T18:00:16.326Z,2.00
2023-11-09T18:02:45.869Z,2.13
2023-11-09T18:05:17.294Z,1.45
2023-11-09T18:07:46.379Z,1.77
2023-11-09T18:10:14.881Z,1.90
2023-11-09T18:12:44.380Z,2.05
2023-11-09T18:15:12.861Z,1.92
2023-11-09T18:17:41.169Z,1.75
2023-11-09T18:20:14.482Z,1.90
2023-11-09T18:22:42.950Z,1.80
2023-11-09T18:25:12.124Z,1.88
2023-11-09T18:27:41.262Z,1.80
2023-11-09T18:30:11.413Z,1.70
2023-11-09T18:32:40.256Z,1.85
2023-11-09T18:35:09.447Z,1.70
2023-11-09T18:37:37.894Z,1.80
2023-11-09T18:40:08.235Z,1.73
2023-11-09T18:42:37.071Z,1.95
2023-11-09T18:45:07.020Z,1.83
2023-11-09T18:47:35.392Z,1.73
2023-11-09T18:52:35.190Z,2.38
2023-11-09T18:55:04.091Z,1.73
2023-11-09T18:57:32.411Z,2.00
2023-11-09T19:00:01.678Z,1.90
2023-11-09T19:02:30.046Z,2.08
2023-11-09T19:04:58.484Z,1.63
2023-11-09T19:07:26.883Z,1.73
2023-11-09T19:09:55.190Z,1.60
2023-11-09T19:12:23.559Z,1.80
2023-11-09T19:14:51.952Z,2.10
2023-11-09T19:17:20.323Z,2.13
2023-11-09T19:19:48.675Z,2.05
2023-11-09T19:24:48.676Z,2.05
2023-11-09T19:27:17.015Z,1.70
2023-11-09T19:29:45.619Z,2.00
2023-11-09T19:32:14.450Z,1.90
2023-11-09T19:34:42.785Z,1.98
2023-11-09T19:37:11.088Z,2.13
2023-11-09T19:39:40.557Z,2.13
2023-11-09T19:42:09.246Z,2.60
2023-11-09T19:44:37.558Z,2.20
2023-11-09T19:47:06.253Z,2.10
2023-11-09T19:49:34.671Z,2.22
2023-11-09T19:52:03.076Z,2.20
2023-11-09T19:54:32.438Z,2.17
2023-11-09T19:57:00.714Z,2.00
2023-11-09T19:59:32.927Z,2.30
2023-11-09T20:02:01.355Z,1.90
2023-11-09T20:04:29.635Z,1.92
2023-11-09T20:06:58.416Z,2.00
2023-11-09T20:09:26.719Z,1.65
2023-11-09T20:11:55.289Z,2.10
2023-11-09T20:14:24.178Z,1.88
2023-11-09T20:16:52.410Z,1.85
2023-11-09T20:19:20.833Z,2.15
2023-11-09T20:21:49.204Z,2.35
2023-11-09T20:24:17.460Z,2.13
2023-11-09T20:26:45.845Z,1.90
2023-11-09T20:29:16.131Z,1.90
2023-11-09T20:31:44.655Z,1.80
2023-11-09T20:34:13.005Z,1.30
2023-11-09T20:36:41.771Z,1.50
2023-11-09T20:39:13.392Z,1.50
2023-11-09T20:41:42.915Z,1.70
2023-11-09T20:44:11.181Z,1.27
2023-11-09T20:46:40.018Z,1.40
2023-11-09T20:49:08.576Z,1.50
2023-11-09T20:51:36.900Z,1.50
2023-11-09T20:54:05.472Z,1.52
2023-11-09T20:56:34.016Z,1.73
2023-11-09T20:59:02.269Z,1.70
2023-11-09T21:01:30.581Z,1.50
2023-11-09T21:03:59.074Z,1.40
2023-11-09T21:06:27.557Z,1.50
2023-11-09T21:08:55.942Z,1.58
2023-11-09T21:11:24.171Z,1.38
2023-11-09T21:13:54.565Z,1.50
2023-11-09T21:16:23.151Z,1.40
2023-11-09T21:18:51.533Z,1.58
2023-11-09T21:21:19.886Z,1.40
2023-11-09T21:23:48.432Z,1.30
2023-11-09T21:26:21.199Z,1.70
2023-11-09T21:28:50.313Z,1.70
2023-11-09T21:31:22.075Z,1.45
2023-11-09T21:33:50.996Z,1.30
2023-11-09T21:36:19.336Z,1.30
2023-11-09T21:38:49.686Z,1.45
2023-11-09T21:41:18.995Z,1.58
2023-11-09T21:43:48.907Z,1.52
2023-11-09T21:46:18.485Z,1.40
2023-11-09T21:48:47.245Z,1.50
2023-11-09T21:51:15.654Z,1.60
2023-11-09T21:53:44.238Z,1.38
2023-11-09T21:56:13.341Z,1.60
2023-11-09T21:58:41.610Z,1.38
2023-11-09T22:01:09.847Z,1.40
2023-11-09T22:03:38.260Z,1.50
2023-11-09T22:06:08.136Z,1.75
2023-11-09T22:08:38.042Z,1.50
2023-11-09T22:11:06.956Z,1.45
2023-11-09T22:13:38.531Z,1.55
2023-11-09T22:16:07.473Z,1.50
2023-11-09T22:18:35.728Z,1.50
2023-11-09T22:21:04.220Z,1.60
2023-11-09T22:23:32.507Z,1.50
2023-11-09T22:26:00.912Z,1.30
2023-11-09T22:28:29.357Z,1.40
2023-11-09T22:30:57.640Z,1.60
2023-11-09T22:33:26.046Z,1.27
2023-11-09T22:35:54.380Z,1.33
2023-11-09T22:38:22.666Z,1.80
2023-11-09T22:40:51.210Z,1.70
2023-11-09T22:43:21.408Z,1.58
2023-11-09T22:45:52.452Z,1.50
2023-11-09T22:48:21.991Z,1.50
2023-11-09T22:50:53.119Z,1.40
2023-11-09T22:53:21.725Z,1.60
2023-11-09T22:55:50.406Z,1.40
2023-11-09T22:58:18.766Z,1.30
2023-11-09T23:00:58.023Z,1.35
2023-11-09T23:03:26.361Z,1.52
2023-11-09T23:05:56.974Z,1.50
2023-11-09T23:08:25.386Z,1.60
2023-11-09T23:10:54.182Z,1.60
2023-11-09T23:13:22.709Z,1.48
2023-11-09T23:15:51.014Z,1.58
2023-11-09T23:18:20.803Z,1.55
2023-11-09T23:20:49.221Z,1.50
2023-11-09T23:23:17.501Z,1.40
2023-11-09T23:25:47.478Z,1.48
2023-11-09T23:28:16.205Z,1.50
2023-11-09T23:30:45.557Z,1.50
2023-11-09T23:33:13.977Z,1.70
2023-11-09T23:35:42.950Z,1.50
2023-11-09T23:38:11.259Z,1.40
2023-11-09T23:40:39.591Z,1.60
2023-11-09T23:43:07.937Z,1.90
2023-11-09T23:45:36.394Z,2.20
2023-11-09T23:48:12.640Z,1.58
2023-11-09T23:50:42.491Z,1.75
2023-11-09T23:53:11.665Z,1.88
2023-11-09T23:55:40.044Z,1.80
2023-11-09T23:58:09.922Z,1.83
